sensor_id;sensor_type;location;lat;lon;timestamp;temperature;humidity
28614;DHT22;15806;53.548;9.964;2023-04-24T00:01:34;13.40;99.90
28614;DHT22;15806;53.548;9.964;2023-04-24T00:03:15;13.50;99.90
28614;DHT22;15806;53.548;9.964;2023-04-24T00:04:55;13.50;99.90
28614;DHT22;15806;53.548;9.964;2023-04-24T00:06:37;13.50;99.90
28614;DHT22;15806;53.548;9.964;2023-04-24T00:08:18;13.60;99.90
28614;DHT22;15806;53.548;9.964;2023-04-24T00:09:58;13.50;99.90
28614;DHT22;15806;53.548;9.964;2023-04-24T00:11:39;13.60;99.90
28614;DHT22;15806;53.548;9.964;2023-04-24T00:13:19;13.60;99.90
28614;DHT22;15806;53.548;9.964;2023-04-24T00:15:00;13.60;99.90
28614;DHT22;15806;53.548;9.964;2023-04-24T00:16:41;13.60;99.90
28614;DHT22;15806;53.548;9.964;2023-04-24T00:18:21;13.60;99.90
28614;DHT22;15806;53.548;9.964;2023-04-24T00:20:02;13.60;99.90
28614;DHT22;15806;53.548;9.964;2023-04-24T00:21:43;13.80;99.90
28614;DHT22;15806;53.548;9.964;2023-04-24T00:23:23;13.70;99.90
28614;DHT22;15806;53.548;9.964;2023-04-24T00:25:04;13.80;99.90
28614;DHT22;15806;53.548;9.964;2023-04-24T00:26:45;13.70;99.90
28614;DHT22;15806;53.548;9.964;2023-04-24T00:28:25;13.70;99.90
28614;DHT22;15806;53.548;9.964;2023-04-24T00:30:06;13.60;99.90
28614;DHT22;15806;53.548;9.964;2023-04-24T00:31:47;13.60;99.90
28614;DHT22;15806;53.548;9.964;2023-04-24T00:33:28;13.70;99.90
28614;DHT22;15806;53.548;9.964;2023-04-24T00:35:08;13.80;99.90
28614;DHT22;15806;53.548;9.964;2023-04-24T00:36:49;13.80;99.90
28614;DHT22;15806;53.548;9.964;2023-04-24T00:38:29;13.70;99.90
28614;DHT22;15806;53.548;9.964;2023-04-24T00:40:10;13.80;99.90
28614;DHT22;15806;53.548;9.964;2023-04-24T00:41:51;13.80;99.90
28614;DHT22;15806;53.548;9.964;2023-04-24T00:43:31;13.80;99.90
28614;DHT22;15806;53.548;9.964;2023-04-24T00:45:12;13.80;99.90
28614;DHT22;15806;53.548;9.964;2023-04-24T00:46:54;13.80;99.90
28614;DHT22;15806;53.548;9.964;2023-04-24T00:48:35;13.70;99.90
28614;DHT22;15806;53.548;9.964;2023-04-24T00:50:16;13.70;99.90
28614;DHT22;15806;53.548;9.964;2023-04-24T00:51:57;13.70;99.90
28614;DHT22;15806;53.548;9.964;2023-04-24T00:53:37;13.70;99.90
28614;DHT22;15806;53.548;9.964;2023-04-24T00:55:18;13.70;99.90
28614;DHT22;15806;53.548;9.964;2023-04-24T00:56:58;13.70;99.90
28614;DHT22;15806;53.548;9.964;2023-04-24T00:58:39;13.60;99.90
28614;DHT22;15806;53.548;9.964;2023-04-24T01:00:20;13.70;99.90
28614;DHT22;15806;53.548;9.964;2023-04-24T01:02:01;13.60;99.90
28614;DHT22;15806;53.548;9.964;2023-04-24T01:03:41;13.60;99.90
28614;DHT22;15806;53.548;9.964;2023-04-24T01:05:22;13.60;99.90
28614;DHT22;15806;53.548;9.964;2023-04-24T01:07:03;13.60;99.90
28614;DHT22;15806;53.548;9.964;2023-04-24T01:08:45;13.60;99.90
28614;DHT22;15806;53.548;9.964;2023-04-24T01:10:27;13.60;99.90
28614;DHT22;15806;53.548;9.964;2023-04-24T01:12:09;13.60;99.90
28614;DHT22;15806;53.548;9.964;2023-04-24T01:13:50;13.60;99.90
28614;DHT22;15806;53.548;9.964;2023-04-24T01:15:30;13.50;99.90
28614;DHT22;15806;53.548;9.964;2023-04-24T01:17:11;13.50;99.90
28614;DHT22;15806;53.548;9.964;2023-04-24T01:18:51;13.50;99.90
28614;DHT22;15806;53.548;9.964;2023-04-24T01:20:32;13.40;99.90
28614;DHT22;15806;53.548;9.964;2023-04-24T01:22:14;13.40;99.90
28614;DHT22;15806;53.548;9.964;2023-04-24T01:23:54;13.40;99.90
28614;DHT22;15806;53.548;9.964;2023-04-24T01:25:35;13.40;99.90
28614;DHT22;15806;53.548;9.964;2023-04-24T01:27:16;13.40;99.90
28614;DHT22;15806;53.548;9.964;2023-04-24T01:28:57;13.40;99.90
28614;DHT22;15806;53.548;9.964;2023-04-24T01:30:37;13.40;99.90
28614;DHT22;15806;53.548;9.964;2023-04-24T01:32:18;13.30;99.90
28614;DHT22;15806;53.548;9.964;2023-04-24T01:33:59;13.30;99.90
28614;DHT22;15806;53.548;9.964;2023-04-24T01:35:40;13.30;99.90
28614;DHT22;15806;53.548;9.964;2023-04-24T01:37:20;13.20;99.90
28614;DHT22;15806;53.548;9.964;2023-04-24T01:39:01;13.30;99.90
28614;DHT22;15806;53.548;9.964;2023-04-24T01:40:42;13.20;99.90
28614;DHT22;15806;53.548;9.964;2023-04-24T01:42:22;13.20;99.90
28614;DHT22;15806;53.548;9.964;2023-04-24T01:44:03;13.20;99.90
28614;DHT22;15806;53.548;9.964;2023-04-24T01:45:44;13.10;99.90
28614;DHT22;15806;53.548;9.964;2023-04-24T01:47:24;13.10;99.90
28614;DHT22;15806;53.548;9.964;2023-04-24T01:49:05;13.10;99.90
28614;DHT22;15806;53.548;9.964;2023-04-24T01:50:46;13.00;99.90
28614;DHT22;15806;53.548;9.964;2023-04-24T01:52:26;12.90;99.90
28614;DHT22;15806;53.548;9.964;2023-04-24T01:54:07;12.90;99.90
28614;DHT22;15806;53.548;9.964;2023-04-24T01:55:47;12.80;99.90
28614;DHT22;15806;53.548;9.964;2023-04-24T01:57:28;12.70;99.90
28614;DHT22;15806;53.548;9.964;2023-04-24T01:59:12;12.70;99.90
28614;DHT22;15806;53.548;9.964;2023-04-24T02:00:52;12.70;99.90
28614;DHT22;15806;53.548;9.964;2023-04-24T02:02:33;12.70;99.90
28614;DHT22;15806;53.548;9.964;2023-04-24T02:04:14;12.60;99.90
28614;DHT22;15806;53.548;9.964;2023-04-24T02:05:54;12.60;99.90
28614;DHT22;15806;53.548;9.964;2023-04-24T02:07:35;12.60;99.90
28614;DHT22;15806;53.548;9.964;2023-04-24T02:09:15;12.60;99.90
28614;DHT22;15806;53.548;9.964;2023-04-24T02:10:56;12.60;99.90
28614;DHT22;15806;53.548;9.964;2023-04-24T02:12:36;12.60;99.90
28614;DHT22;15806;53.548;9.964;2023-04-24T02:14:17;12.50;99.90
28614;DHT22;15806;53.548;9.964;2023-04-24T02:16:00;12.50;99.90
28614;DHT22;15806;53.548;9.964;2023-04-24T02:17:41;12.50;99.90
28614;DHT22;15806;53.548;9.964;2023-04-24T02:19:21;12.50;99.90
28614;DHT22;15806;53.548;9.964;2023-04-24T02:21:02;12.50;99.90
28614;DHT22;15806;53.548;9.964;2023-04-24T02:22:42;12.50;99.90
28614;DHT22;15806;53.548;9.964;2023-04-24T02:24:23;12.50;99.90
28614;DHT22;15806;53.548;9.964;2023-04-24T02:26:04;12.50;99.90
28614;DHT22;15806;53.548;9.964;2023-04-24T02:27:44;12.50;99.90
28614;DHT22;15806;53.548;9.964;2023-04-24T02:29:25;12.50;99.90
28614;DHT22;15806;53.548;9.964;2023-04-24T02:31:05;12.50;99.90
28614;DHT22;15806;53.548;9.964;2023-04-24T02:32:45;12.50;99.90
28614;DHT22;15806;53.548;9.964;2023-04-24T02:34:26;12.50;99.90
28614;DHT22;15806;53.548;9.964;2023-04-24T02:36:07;12.50;99.90
28614;DHT22;15806;53.548;9.964;2023-04-24T02:37:47;12.50;99.90
28614;DHT22;15806;53.548;9.964;2023-04-24T02:39:28;12.50;99.90
28614;DHT22;15806;53.548;9.964;2023-04-24T02:41:08;12.50;99.90
28614;DHT22;15806;53.548;9.964;2023-04-24T02:42:49;12.40;99.90
28614;DHT22;15806;53.548;9.964;2023-04-24T02:44:29;12.40;99.90
28614;DHT22;15806;53.548;9.964;2023-04-24T02:46:10;12.40;99.90
28614;DHT22;15806;53.548;9.964;2023-04-24T02:47:50;12.40;99.90
28614;DHT22;15806;53.548;9.964;2023-04-24T02:49:31;12.30;99.90
28614;DHT22;15806;53.548;9.964;2023-04-24T02:51:11;12.30;99.90
28614;DHT22;15806;53.548;9.964;2023-04-24T02:52:52;12.30;99.90
28614;DHT22;15806;53.548;9.964;2023-04-24T02:54:32;12.30;99.90
28614;DHT22;15806;53.548;9.964;2023-04-24T02:56:13;12.30;99.90
28614;DHT22;15806;53.548;9.964;2023-04-24T02:57:53;12.20;99.90
28614;DHT22;15806;53.548;9.964;2023-04-24T02:59:34;12.20;99.90
28614;DHT22;15806;53.548;9.964;2023-04-24T03:01:14;12.20;99.90
28614;DHT22;15806;53.548;9.964;2023-04-24T03:02:55;12.10;99.90
28614;DHT22;15806;53.548;9.964;2023-04-24T03:04:35;12.10;99.90
28614;DHT22;15806;53.548;9.964;2023-04-24T03:06:16;12.10;99.90
28614;DHT22;15806;53.548;9.964;2023-04-24T03:07:57;12.10;99.90
28614;DHT22;15806;53.548;9.964;2023-04-24T03:09:37;12.10;99.90
28614;DHT22;15806;53.548;9.964;2023-04-24T03:11:18;12.10;99.90
28614;DHT22;15806;53.548;9.964;2023-04-24T03:12:58;12.10;99.90
28614;DHT22;15806;53.548;9.964;2023-04-24T03:14:38;12.00;99.90
28614;DHT22;15806;53.548;9.964;2023-04-24T03:16:19;12.00;99.90
28614;DHT22;15806;53.548;9.964;2023-04-24T03:17:59;12.00;99.90
28614;DHT22;15806;53.548;9.964;2023-04-24T03:19:40;11.90;99.90
28614;DHT22;15806;53.548;9.964;2023-04-24T03:21:20;12.00;99.90
28614;DHT22;15806;53.548;9.964;2023-04-24T03:23:01;12.00;99.90
28614;DHT22;15806;53.548;9.964;2023-04-24T03:24:41;11.90;99.90
28614;DHT22;15806;53.548;9.964;2023-04-24T03:26:22;11.90;99.90
28614;DHT22;15806;53.548;9.964;2023-04-24T03:28:02;11.80;99.90
28614;DHT22;15806;53.548;9.964;2023-04-24T03:29:43;11.80;99.90
28614;DHT22;15806;53.548;9.964;2023-04-24T03:31:23;11.80;99.90
28614;DHT22;15806;53.548;9.964;2023-04-24T03:33:04;11.70;99.90
28614;DHT22;15806;53.548;9.964;2023-04-24T03:34:44;11.70;99.90
28614;DHT22;15806;53.548;9.964;2023-04-24T03:36:25;11.70;99.90
28614;DHT22;15806;53.548;9.964;2023-04-24T03:38:05;11.70;99.90
28614;DHT22;15806;53.548;9.964;2023-04-24T03:39:46;11.60;99.90
28614;DHT22;15806;53.548;9.964;2023-04-24T03:41:26;11.60;99.90
28614;DHT22;15806;53.548;9.964;2023-04-24T03:43:07;11.60;99.90
28614;DHT22;15806;53.548;9.964;2023-04-24T03:44:47;11.60;99.90
28614;DHT22;15806;53.548;9.964;2023-04-24T03:46:28;11.50;99.90
28614;DHT22;15806;53.548;9.964;2023-04-24T03:48:08;11.60;99.90
28614;DHT22;15806;53.548;9.964;2023-04-24T03:49:49;11.40;99.90
28614;DHT22;15806;53.548;9.964;2023-04-24T03:51:29;11.40;99.90
28614;DHT22;15806;53.548;9.964;2023-04-24T03:53:10;11.40;99.90
28614;DHT22;15806;53.548;9.964;2023-04-24T03:54:50;11.40;99.90
28614;DHT22;15806;53.548;9.964;2023-04-24T03:56:31;11.40;99.90
28614;DHT22;15806;53.548;9.964;2023-04-24T03:58:11;11.40;99.90
28614;DHT22;15806;53.548;9.964;2023-04-24T03:59:52;11.30;99.90
28614;DHT22;15806;53.548;9.964;2023-04-24T04:01:32;11.30;99.90
28614;DHT22;15806;53.548;9.964;2023-04-24T04:03:13;11.30;99.90
28614;DHT22;15806;53.548;9.964;2023-04-24T04:04:53;11.30;99.90
28614;DHT22;15806;53.548;9.964;2023-04-24T04:06:34;11.20;99.90
28614;DHT22;15806;53.548;9.964;2023-04-24T04:08:14;11.30;99.90
28614;DHT22;15806;53.548;9.964;2023-04-24T04:09:55;11.20;99.90
28614;DHT22;15806;53.548;9.964;2023-04-24T04:11:36;11.30;99.90
28614;DHT22;15806;53.548;9.964;2023-04-24T04:13:16;11.30;99.90
28614;DHT22;15806;53.548;9.964;2023-04-24T04:14:57;11.30;99.90
28614;DHT22;15806;53.548;9.964;2023-04-24T04:16:37;11.30;99.90
28614;DHT22;15806;53.548;9.964;2023-04-24T04:18:18;11.30;99.90
28614;DHT22;15806;53.548;9.964;2023-04-24T04:19:58;11.30;99.90
28614;DHT22;15806;53.548;9.964;2023-04-24T04:21:39;11.30;99.90
28614;DHT22;15806;53.548;9.964;2023-04-24T04:23:19;11.30;99.90
28614;DHT22;15806;53.548;9.964;2023-04-24T04:25:00;11.30;99.90
28614;DHT22;15806;53.548;9.964;2023-04-24T04:26:40;11.20;99.90
28614;DHT22;15806;53.548;9.964;2023-04-24T04:28:21;11.20;99.90
28614;DHT22;15806;53.548;9.964;2023-04-24T04:30:02;11.20;99.90
28614;DHT22;15806;53.548;9.964;2023-04-24T04:31:44;11.20;99.90
28614;DHT22;15806;53.548;9.964;2023-04-24T04:33:24;11.20;99.90
28614;DHT22;15806;53.548;9.964;2023-04-24T04:35:05;11.20;99.90
28614;DHT22;15806;53.548;9.964;2023-04-24T04:36:46;11.20;99.90
28614;DHT22;15806;53.548;9.964;2023-04-24T04:39:09;11.20;99.90
28614;DHT22;15806;53.548;9.964;2023-04-24T04:40:49;11.20;99.90
28614;DHT22;15806;53.548;9.964;2023-04-24T04:42:30;11.20;99.90
28614;DHT22;15806;53.548;9.964;2023-04-24T04:44:11;11.10;99.90
28614;DHT22;15806;53.548;9.964;2023-04-24T04:45:52;11.20;99.90
28614;DHT22;15806;53.548;9.964;2023-04-24T04:47:33;11.20;99.90
28614;DHT22;15806;53.548;9.964;2023-04-24T04:49:13;11.20;99.90
28614;DHT22;15806;53.548;9.964;2023-04-24T04:50:54;11.20;99.90
28614;DHT22;15806;53.548;9.964;2023-04-24T04:52:34;11.20;99.90
28614;DHT22;15806;53.548;9.964;2023-04-24T04:54:15;11.20;99.90
28614;DHT22;15806;53.548;9.964;2023-04-24T04:55:56;11.20;99.90
28614;DHT22;15806;53.548;9.964;2023-04-24T04:57:37;11.20;99.90
28614;DHT22;15806;53.548;9.964;2023-04-24T04:59:18;11.20;99.90
28614;DHT22;15806;53.548;9.964;2023-04-24T05:00:58;11.20;99.90
28614;DHT22;15806;53.548;9.964;2023-04-24T05:02:39;11.20;99.90
28614;DHT22;15806;53.548;9.964;2023-04-24T05:04:20;11.20;99.90
28614;DHT22;15806;53.548;9.964;2023-04-24T05:06:00;11.20;99.90
28614;DHT22;15806;53.548;9.964;2023-04-24T05:07:40;11.20;99.90
28614;DHT22;15806;53.548;9.964;2023-04-24T05:09:21;11.20;99.90
28614;DHT22;15806;53.548;9.964;2023-04-24T05:11:02;11.20;99.90
28614;DHT22;15806;53.548;9.964;2023-04-24T05:12:42;11.20;99.90
28614;DHT22;15806;53.548;9.964;2023-04-24T05:14:23;11.20;99.90
28614;DHT22;15806;53.548;9.964;2023-04-24T05:16:03;11.20;99.90
28614;DHT22;15806;53.548;9.964;2023-04-24T05:17:44;11.20;99.90
28614;DHT22;15806;53.548;9.964;2023-04-24T05:19:24;11.20;99.90
28614;DHT22;15806;53.548;9.964;2023-04-24T05:21:05;11.30;99.90
28614;DHT22;15806;53.548;9.964;2023-04-24T05:22:45;11.30;99.90
28614;DHT22;15806;53.548;9.964;2023-04-24T05:24:26;11.30;99.90
28614;DHT22;15806;53.548;9.964;2023-04-24T05:26:06;11.30;99.90
28614;DHT22;15806;53.548;9.964;2023-04-24T05:27:47;11.30;99.90
28614;DHT22;15806;53.548;9.964;2023-04-24T05:29:28;11.30;99.90
28614;DHT22;15806;53.548;9.964;2023-04-24T05:31:08;11.20;99.90
28614;DHT22;15806;53.548;9.964;2023-04-24T05:32:49;11.20;99.90
28614;DHT22;15806;53.548;9.964;2023-04-24T05:34:29;11.20;99.90
28614;DHT22;15806;53.548;9.964;2023-04-24T05:36:10;11.20;99.90
28614;DHT22;15806;53.548;9.964;2023-04-24T05:37:50;11.20;99.90
28614;DHT22;15806;53.548;9.964;2023-04-24T05:39:31;11.20;99.90
28614;DHT22;15806;53.548;9.964;2023-04-24T05:41:11;11.20;99.90
28614;DHT22;15806;53.548;9.964;2023-04-24T05:42:52;11.20;99.90
28614;DHT22;15806;53.548;9.964;2023-04-24T05:44:32;11.20;99.90
28614;DHT22;15806;53.548;9.964;2023-04-24T05:46:13;11.30;99.90
28614;DHT22;15806;53.548;9.964;2023-04-24T05:47:53;11.30;99.90
28614;DHT22;15806;53.548;9.964;2023-04-24T05:49:34;11.30;99.90
28614;DHT22;15806;53.548;9.964;2023-04-24T05:51:14;11.30;99.90
28614;DHT22;15806;53.548;9.964;2023-04-24T05:52:55;11.30;99.90
28614;DHT22;15806;53.548;9.964;2023-04-24T05:54:35;11.30;99.90
28614;DHT22;15806;53.548;9.964;2023-04-24T05:56:16;11.30;99.90
28614;DHT22;15806;53.548;9.964;2023-04-24T05:57:56;11.40;99.90
28614;DHT22;15806;53.548;9.964;2023-04-24T05:59:37;11.40;99.90
28614;DHT22;15806;53.548;9.964;2023-04-24T06:01:18;11.40;99.90
28614;DHT22;15806;53.548;9.964;2023-04-24T06:03:00;11.40;96.70
28614;DHT22;15806;53.548;9.964;2023-04-24T06:04:40;11.40;99.90
28614;DHT22;15806;53.548;9.964;2023-04-24T06:06:21;11.40;99.90
28614;DHT22;15806;53.548;9.964;2023-04-24T06:08:01;11.40;99.90
28614;DHT22;15806;53.548;9.964;2023-04-24T06:09:42;11.50;1.00
28614;DHT22;15806;53.548;9.964;2023-04-24T06:11:22;11.40;99.90
28614;DHT22;15806;53.548;9.964;2023-04-24T06:13:03;11.40;1.00
28614;DHT22;15806;53.548;9.964;2023-04-24T06:14:43;11.50;1.00
28614;DHT22;15806;53.548;9.964;2023-04-24T06:16:24;11.50;99.90
28614;DHT22;15806;53.548;9.964;2023-04-24T06:18:04;11.50;1.00
28614;DHT22;15806;53.548;9.964;2023-04-24T06:19:45;11.50;99.90
28614;DHT22;15806;53.548;9.964;2023-04-24T06:21:25;11.60;1.00
28614;DHT22;15806;53.548;9.964;2023-04-24T06:23:06;11.60;43.90
28614;DHT22;15806;53.548;9.964;2023-04-24T06:24:46;11.60;99.90
28614;DHT22;15806;53.548;9.964;2023-04-24T06:26:27;11.70;99.90
28614;DHT22;15806;53.548;9.964;2023-04-24T06:28:08;11.70;99.90
28614;DHT22;15806;53.548;9.964;2023-04-24T06:29:48;11.60;99.90
28614;DHT22;15806;53.548;9.964;2023-04-24T06:31:29;11.60;99.90
28614;DHT22;15806;53.548;9.964;2023-04-24T06:33:09;11.60;63.00
28614;DHT22;15806;53.548;9.964;2023-04-24T06:34:53;11.70;1.00
28614;DHT22;15806;53.548;9.964;2023-04-24T06:36:34;11.70;1.00
28614;DHT22;15806;53.548;9.964;2023-04-24T06:38:14;11.70;1.00
28614;DHT22;15806;53.548;9.964;2023-04-24T06:39:55;11.80;1.00
28614;DHT22;15806;53.548;9.964;2023-04-24T06:41:35;11.80;1.00
28614;DHT22;15806;53.548;9.964;2023-04-24T06:43:16;11.80;99.90
28614;DHT22;15806;53.548;9.964;2023-04-24T06:44:57;11.80;48.30
28614;DHT22;15806;53.548;9.964;2023-04-24T06:46:38;11.80;99.90
28614;DHT22;15806;53.548;9.964;2023-04-24T06:48:18;11.80;1.00
28614;DHT22;15806;53.548;9.964;2023-04-24T06:49:59;11.90;1.00
28614;DHT22;15806;53.548;9.964;2023-04-24T06:51:39;11.90;99.90
28614;DHT22;15806;53.548;9.964;2023-04-24T06:53:20;11.90;93.60
28614;DHT22;15806;53.548;9.964;2023-04-24T06:55:04;12.00;99.90
28614;DHT22;15806;53.548;9.964;2023-04-24T06:56:44;12.00;96.40
28614;DHT22;15806;53.548;9.964;2023-04-24T06:58:25;12.10;99.90
28614;DHT22;15806;53.548;9.964;2023-04-24T07:00:06;12.20;1.00
28614;DHT22;15806;53.548;9.964;2023-04-24T07:01:47;12.20;99.90
28614;DHT22;15806;53.548;9.964;2023-04-24T07:03:27;12.60;99.90
28614;DHT22;15806;53.548;9.964;2023-04-24T07:05:08;12.80;30.70
28614;DHT22;15806;53.548;9.964;2023-04-24T07:06:49;12.90;1.00
28614;DHT22;15806;53.548;9.964;2023-04-24T07:08:29;13.40;99.90
28614;DHT22;15806;53.548;9.964;2023-04-24T07:10:10;13.40;99.90
28614;DHT22;15806;53.548;9.964;2023-04-24T07:11:51;13.30;99.90
28614;DHT22;15806;53.548;9.964;2023-04-24T07:13:32;13.00;20.70
28614;DHT22;15806;53.548;9.964;2023-04-24T07:15:12;13.20;1.00
28614;DHT22;15806;53.548;9.964;2023-04-24T07:16:53;13.40;99.90
28614;DHT22;15806;53.548;9.964;2023-04-24T07:18:33;13.10;1.00
28614;DHT22;15806;53.548;9.964;2023-04-24T07:20:14;13.20;99.90
28614;DHT22;15806;53.548;9.964;2023-04-24T07:21:54;12.70;99.90
28614;DHT22;15806;53.548;9.964;2023-04-24T07:23:35;12.50;99.90
28614;DHT22;15806;53.548;9.964;2023-04-24T07:25:15;12.30;1.00
28614;DHT22;15806;53.548;9.964;2023-04-24T07:26:56;12.70;1.00
28614;DHT22;15806;53.548;9.964;2023-04-24T07:28:39;12.90;99.90
28614;DHT22;15806;53.548;9.964;2023-04-24T07:30:28;13.20;1.00
28614;DHT22;15806;53.548;9.964;2023-04-24T07:32:08;12.90;1.00
28614;DHT22;15806;53.548;9.964;2023-04-24T07:33:49;12.70;99.90
28614;DHT22;15806;53.548;9.964;2023-04-24T07:35:29;12.50;99.90
28614;DHT22;15806;53.548;9.964;2023-04-24T07:37:10;12.60;1.00
28614;DHT22;15806;53.548;9.964;2023-04-24T07:38:50;12.60;1.00
28614;DHT22;15806;53.548;9.964;2023-04-24T07:40:31;12.60;34.00
28614;DHT22;15806;53.548;9.964;2023-04-24T07:42:11;12.50;1.00
28614;DHT22;15806;53.548;9.964;2023-04-24T07:44:07;12.50;99.90
28614;DHT22;15806;53.548;9.964;2023-04-24T07:45:51;12.40;99.90
28614;DHT22;15806;53.548;9.964;2023-04-24T07:47:52;12.40;99.90
28614;DHT22;15806;53.548;9.964;2023-04-24T07:49:36;12.40;24.80
28614;DHT22;15806;53.548;9.964;2023-04-24T07:51:34;12.50;99.90
28614;DHT22;15806;53.548;9.964;2023-04-24T07:53:36;12.80;99.90
28614;DHT22;15806;53.548;9.964;2023-04-24T07:57:34;12.70;1.00
28614;DHT22;15806;53.548;9.964;2023-04-24T07:59:18;13.10;99.90
28614;DHT22;15806;53.548;9.964;2023-04-24T08:00:59;12.60;34.20
28614;DHT22;15806;53.548;9.964;2023-04-24T08:02:48;12.60;99.90
28614;DHT22;15806;53.548;9.964;2023-04-24T08:04:31;12.60;99.90
28614;DHT22;15806;53.548;9.964;2023-04-24T08:06:27;12.50;99.90
28614;DHT22;15806;53.548;9.964;2023-04-24T08:08:29;12.60;99.90
28614;DHT22;15806;53.548;9.964;2023-04-24T08:10:35;12.50;99.90
28614;DHT22;15806;53.548;9.964;2023-04-24T08:12:37;12.30;99.90
28614;DHT22;15806;53.548;9.964;2023-04-24T08:15:08;12.50;99.90
28614;DHT22;15806;53.548;9.964;2023-04-24T08:17:17;12.60;1.00
28614;DHT22;15806;53.548;9.964;2023-04-24T08:21:09;12.50;1.00
28614;DHT22;15806;53.548;9.964;2023-04-24T08:22:56;12.50;1.00
28614;DHT22;15806;53.548;9.964;2023-04-24T08:24:37;12.80;1.00
28614;DHT22;15806;53.548;9.964;2023-04-24T08:26:17;12.60;1.00
28614;DHT22;15806;53.548;9.964;2023-04-24T08:27:58;12.60;1.00
28614;DHT22;15806;53.548;9.964;2023-04-24T08:29:48;12.50;1.00
28614;DHT22;15806;53.548;9.964;2023-04-24T08:31:31;12.60;99.90
28614;DHT22;15806;53.548;9.964;2023-04-24T08:33:15;12.40;99.90
28614;DHT22;15806;53.548;9.964;2023-04-24T08:34:56;12.60;99.90
28614;DHT22;15806;53.548;9.964;2023-04-24T08:36:51;12.60;99.90
28614;DHT22;15806;53.548;9.964;2023-04-24T08:38:33;12.40;99.90
28614;DHT22;15806;53.548;9.964;2023-04-24T08:40:27;12.40;99.90
28614;DHT22;15806;53.548;9.964;2023-04-24T08:44:48;12.20;1.00
28614;DHT22;15806;53.548;9.964;2023-04-24T08:46:31;12.30;1.00
28614;DHT22;15806;53.548;9.964;2023-04-24T08:50:37;12.00;99.90
28614;DHT22;15806;53.548;9.964;2023-04-24T08:52:49;12.00;1.00
28614;DHT22;15806;53.548;9.964;2023-04-24T08:54:41;12.10;1.00
28614;DHT22;15806;53.548;9.964;2023-04-24T08:56:23;12.20;96.30
28614;DHT22;15806;53.548;9.964;2023-04-24T08:58:28;12.20;1.00
28614;DHT22;15806;53.548;9.964;2023-04-24T09:02:18;12.20;1.00
28614;DHT22;15806;53.548;9.964;2023-04-24T09:04:18;12.30;99.90
28614;DHT22;15806;53.548;9.964;2023-04-24T09:06:30;12.40;99.90
28614;DHT22;15806;53.548;9.964;2023-04-24T09:08:26;12.60;78.90
28614;DHT22;15806;53.548;9.964;2023-04-24T09:10:11;12.50;1.00
28614;DHT22;15806;53.548;9.964;2023-04-24T09:12:01;12.50;1.00
28614;DHT22;15806;53.548;9.964;2023-04-24T09:13:49;12.70;1.00
28614;DHT22;15806;53.548;9.964;2023-04-24T09:15:30;12.70;1.00
28614;DHT22;15806;53.548;9.964;2023-04-24T09:19:31;12.70;1.00
28614;DHT22;15806;53.548;9.964;2023-04-24T09:21:11;12.60;1.00
28614;DHT22;15806;53.548;9.964;2023-04-24T09:22:56;12.70;1.00
28614;DHT22;15806;53.548;9.964;2023-04-24T09:24:41;12.60;1.00
28614;DHT22;15806;53.548;9.964;2023-04-24T09:26:22;12.70;1.00
28614;DHT22;15806;53.548;9.964;2023-04-24T09:28:04;12.50;1.00
28614;DHT22;15806;53.548;9.964;2023-04-24T09:30:01;12.50;1.00
28614;DHT22;15806;53.548;9.964;2023-04-24T09:31:45;12.60;1.00
28614;DHT22;15806;53.548;9.964;2023-04-24T09:36:01;12.40;1.00
28614;DHT22;15806;53.548;9.964;2023-04-24T09:37:43;12.20;1.00
28614;DHT22;15806;53.548;9.964;2023-04-24T09:39:30;12.30;81.80
28614;DHT22;15806;53.548;9.964;2023-04-24T09:41:13;12.20;1.00
28614;DHT22;15806;53.548;9.964;2023-04-24T09:42:56;12.20;99.90
28614;DHT22;15806;53.548;9.964;2023-04-24T09:44:36;12.30;92.50
28614;DHT22;15806;53.548;9.964;2023-04-24T09:46:18;12.10;29.00
28614;DHT22;15806;53.548;9.964;2023-04-24T09:47:59;12.10;99.90
28614;DHT22;15806;53.548;9.964;2023-04-24T09:49:39;12.20;99.90
28614;DHT22;15806;53.548;9.964;2023-04-24T09:51:33;12.20;99.90
28614;DHT22;15806;53.548;9.964;2023-04-24T09:53:14;12.10;99.90
28614;DHT22;15806;53.548;9.964;2023-04-24T09:54:55;12.10;1.00
28614;DHT22;15806;53.548;9.964;2023-04-24T09:56:35;12.20;1.00
28614;DHT22;15806;53.548;9.964;2023-04-24T09:58:16;12.30;1.00
28614;DHT22;15806;53.548;9.964;2023-04-24T09:59:57;12.20;1.00
28614;DHT22;15806;53.548;9.964;2023-04-24T10:01:38;12.20;1.00
28614;DHT22;15806;53.548;9.964;2023-04-24T10:03:18;12.20;1.00
28614;DHT22;15806;53.548;9.964;2023-04-24T10:04:59;12.20;1.00
28614;DHT22;15806;53.548;9.964;2023-04-24T10:06:42;12.20;28.00
28614;DHT22;15806;53.548;9.964;2023-04-24T10:08:23;12.20;1.00
28614;DHT22;15806;53.548;9.964;2023-04-24T10:10:04;12.10;1.00
28614;DHT22;15806;53.548;9.964;2023-04-24T10:11:47;12.10;99.90
28614;DHT22;15806;53.548;9.964;2023-04-24T10:13:28;12.30;99.90
28614;DHT22;15806;53.548;9.964;2023-04-24T10:15:10;12.30;99.90
28614;DHT22;15806;53.548;9.964;2023-04-24T10:16:55;12.30;1.00
28614;DHT22;15806;53.548;9.964;2023-04-24T10:18:36;12.10;1.00
28614;DHT22;15806;53.548;9.964;2023-04-24T10:20:17;12.10;1.00
28614;DHT22;15806;53.548;9.964;2023-04-24T10:21:58;12.10;1.00
28614;DHT22;15806;53.548;9.964;2023-04-24T10:23:39;12.20;1.00
28614;DHT22;15806;53.548;9.964;2023-04-24T10:25:27;12.10;1.00
28614;DHT22;15806;53.548;9.964;2023-04-24T10:27:08;12.10;1.00
28614;DHT22;15806;53.548;9.964;2023-04-24T10:28:49;12.10;1.00
28614;DHT22;15806;53.548;9.964;2023-04-24T10:30:33;12.10;1.00
28614;DHT22;15806;53.548;9.964;2023-04-24T10:32:14;12.00;99.90
28614;DHT22;15806;53.548;9.964;2023-04-24T10:33:55;12.00;1.00
28614;DHT22;15806;53.548;9.964;2023-04-24T10:35:42;12.10;1.00
28614;DHT22;15806;53.548;9.964;2023-04-24T10:37:25;12.10;1.00
28614;DHT22;15806;53.548;9.964;2023-04-24T10:39:08;12.10;1.00
28614;DHT22;15806;53.548;9.964;2023-04-24T10:40:49;12.20;1.00
28614;DHT22;15806;53.548;9.964;2023-04-24T10:42:30;12.20;1.00
28614;DHT22;15806;53.548;9.964;2023-04-24T10:44:13;12.20;1.00
28614;DHT22;15806;53.548;9.964;2023-04-24T10:46:01;12.10;1.00
28614;DHT22;15806;53.548;9.964;2023-04-24T10:47:42;12.20;99.90
28614;DHT22;15806;53.548;9.964;2023-04-24T10:49:30;12.20;99.90
28614;DHT22;15806;53.548;9.964;2023-04-24T10:51:12;12.30;1.00
28614;DHT22;15806;53.548;9.964;2023-04-24T10:52:53;12.40;1.00
28614;DHT22;15806;53.548;9.964;2023-04-24T10:54:42;12.30;99.90
28614;DHT22;15806;53.548;9.964;2023-04-24T10:56:24;12.40;1.00
28614;DHT22;15806;53.548;9.964;2023-04-24T10:58:05;12.40;99.90
28614;DHT22;15806;53.548;9.964;2023-04-24T10:59:47;12.30;1.00
28614;DHT22;15806;53.548;9.964;2023-04-24T11:01:31;12.40;1.00
28614;DHT22;15806;53.548;9.964;2023-04-24T11:03:29;12.50;1.00
28614;DHT22;15806;53.548;9.964;2023-04-24T11:05:10;12.60;1.00
28614;DHT22;15806;53.548;9.964;2023-04-24T11:06:52;12.50;99.90